Time;durP1;ratioP1;P1;durP2;ratioP2;P2;SDS_P1;SDS_P2;PMS_P1;PMS_P2;Temp;Humidity;BMP_temperature;BMP_pressure;BME280_temperature;BME280_humidity;BME280_pressure;Samples;Min_cycle;Max_cycle;Signal;HPM_P1;HPM_P2
2023/04/01 00:00:29;;;;;;;1999.90;999.90;;;6.70;99.90;;;;;;5056702;28;20032;-81
2023/04/01 00:02:55;;;;;;;1999.90;999.90;;;6.60;99.90;;;;;;5052461;28;20404;-78
2023/04/01 00:05:21;;;;;;;1999.90;999.90;;;6.60;99.90;;;;;;5055487;28;20048;-79
2023/04/01 00:08:20;;;;;;;1999.90;999.90;;;6.60;99.90;;;;;;5053617;28;20036;-78
2023/04/01 00:10:45;;;;;;;1999.90;999.90;;;6.70;99.90;;;;;;5054470;28;20045;-78
2023/04/01 00:13:11;;;;;;;1999.90;999.90;;;6.60;99.90;;;;;;5049776;28;20498;-79
2023/04/01 00:15:37;;;;;;;1999.90;999.90;;;6.50;99.90;;;;;;5053536;28;20465;-79
2023/04/01 00:18:03;;;;;;;1999.90;999.90;;;6.50;99.90;;;;;;5055557;28;20056;-78
2023/04/01 00:20:29;;;;;;;1999.90;999.90;;;6.50;99.90;;;;;;5068486;28;20128;-78
2023/04/01 00:22:55;;;;;;;1999.90;999.90;;;6.60;99.90;;;;;;5057600;28;20033;-78
2023/04/01 00:25:21;;;;;;;1999.90;999.90;;;6.60;99.90;;;;;;5033023;28;20025;-79
2023/04/01 00:27:47;;;;;;;1999.90;999.90;;;6.50;99.90;;;;;;5054058;28;20040;-81
2023/04/01 00:30:13;;;;;;;1999.90;999.90;;;6.50;99.90;;;;;;5055145;28;20039;-78
2023/04/01 00:32:38;;;;;;;1999.90;999.90;;;6.40;99.90;;;;;;5054523;28;20025;-78
2023/04/01 00:35:04;;;;;;;1999.90;999.90;;;6.50;99.90;;;;;;5055834;28;20047;-79
2023/04/01 00:37:30;;;;;;;1999.90;999.90;;;6.40;99.90;;;;;;5058458;28;20020;-78
2023/04/01 00:39:56;;;;;;;1999.90;999.90;;;6.50;99.90;;;;;;5052063;28;20069;-77
2023/04/01 00:42:23;;;;;;;1999.90;999.90;;;6.40;99.90;;;;;;5054353;28;20082;-78
2023/04/01 00:44:52;;;;;;;1999.90;999.90;;;6.40;99.90;;;;;;5053072;28;20033;-78
2023/04/01 00:47:18;;;;;;;1999.90;999.90;;;6.40;99.90;;;;;;5058575;28;20025;-78
2023/04/01 00:49:49;;;;;;;1999.90;999.90;;;6.40;99.90;;;;;;5056018;28;20086;-78
2023/04/01 00:52:20;;;;;;;1999.90;999.90;;;6.40;99.90;;;;;;5036454;28;20040;-78
2023/04/01 00:54:47;;;;;;;;;;;6.40;99.90;;;;;;5048079;28;20033;-79
2023/04/01 00:57:36;;;;;;;1999.90;999.90;;;6.40;99.90;;;;;;5047987;28;20433;-80
2023/04/01 01:00:07;;;;;;;1999.90;999.90;;;6.40;99.90;;;;;;5051625;28;20151;-78
2023/04/01 01:02:34;;;;;;;1999.90;999.90;;;6.40;99.90;;;;;;5054726;28;20399;-77
2023/04/01 01:05:00;;;;;;;1999.90;999.90;;;6.50;99.90;;;;;;5047621;28;20041;-78
2023/04/01 01:07:47;;;;;;;1999.90;999.90;;;6.50;99.90;;;;;;5058101;28;20041;-78
2023/04/01 01:10:23;;;;;;;1999.90;999.90;;;6.40;99.90;;;;;;5055424;28;20016;-79
2023/04/01 01:13:10;;;;;;;1999.90;999.90;;;6.40;99.90;;;;;;5053355;28;20491;-80
2023/04/01 01:15:46;;;;;;;1999.90;999.90;;;6.30;99.90;;;;;;5057527;28;20048;-78
2023/04/01 01:18:33;;;;;;;1999.90;999.90;;;6.20;99.90;;;;;;5054913;28;20020;-78
2023/04/01 01:21:20;;;;;;;1999.90;999.90;;;6.20;99.90;;;;;;5055687;28;20021;-77
2023/04/01 01:23:46;;;;;;;1999.90;999.90;;;6.20;99.90;;;;;;5070672;28;20037;-78
2023/04/01 01:26:26;;;;;;;1999.90;999.90;;;6.20;99.90;;;;;;5050142;28;20035;-79
2023/04/01 01:29:26;;;;;;;1999.90;999.90;;;6.10;99.90;;;;;;5063250;28;20034;-78
2023/04/01 01:32:24;;;;;;;1999.90;999.90;;;6.10;99.90;;;;;;5048212;28;20052;-78
2023/04/01 01:35:05;;;;;;;1999.90;999.90;;;6.10;99.90;;;;;;5057382;28;20052;-78
2023/04/01 01:37:31;;;;;;;1999.90;999.90;;;6.10;99.90;;;;;;5057771;28;20028;-77
2023/04/01 01:40:01;;;;;;;1999.90;999.90;;;6.10;99.90;;;;;;5056669;28;20056;-78
2023/04/01 01:42:30;;;;;;;1999.90;999.90;;;6.20;99.90;;;;;;5057855;28;20032;-78
2023/04/01 01:44:59;;;;;;;1999.90;999.90;;;6.20;99.90;;;;;;5054146;28;20028;-78
2023/04/01 01:47:26;;;;;;;1999.90;999.90;;;6.20;99.90;;;;;;5059843;28;20021;-80
2023/04/01 01:49:55;;;;;;;1999.90;999.90;;;6.30;99.90;;;;;;5059253;28;20498;-77
2023/04/01 01:52:23;;;;;;;1999.90;999.90;;;6.20;99.90;;;;;;5044884;28;20040;-79
2023/04/01 01:54:53;;;;;;;1999.90;999.90;;;6.20;99.90;;;;;;5057613;28;20036;-79
2023/04/01 01:57:24;;;;;;;1999.90;999.90;;;6.20;99.90;;;;;;5057052;28;20036;-77
2023/04/01 01:59:52;;;;;;;1999.90;999.90;;;6.20;99.90;;;;;;5054035;28;20118;-77
2023/04/01 02:02:31;;;;;;;1999.90;999.90;;;6.10;99.90;;;;;;5057692;28;20020;-78
2023/04/01 02:04:57;;;;;;;1999.90;999.90;;;6.00;99.90;;;;;;5052826;28;20052;-77
2023/04/01 02:07:32;;;;;;;1999.90;999.90;;;6.00;99.90;;;;;;5055927;28;20029;-77
2023/04/01 02:09:57;;;;;;;1999.90;999.90;;;6.00;99.90;;;;;;5055493;28;20059;-78
2023/04/01 02:12:24;;;;;;;1999.90;999.90;;;5.90;99.90;;;;;;5058688;28;20025;-77
2023/04/01 02:15:05;;;;;;;1999.90;999.90;;;5.90;99.90;;;;;;5056027;28;20029;-77
2023/04/01 02:17:33;;;;;;;1999.90;999.90;;;5.90;99.90;;;;;;5055974;28;20480;-77
2023/04/01 02:20:01;;;;;;;1999.90;999.90;;;6.00;99.90;;;;;;5064808;28;20406;-78
2023/04/01 02:22:31;;;;;;;1999.90;999.90;;;5.90;99.90;;;;;;5059389;28;20033;-77
2023/04/01 02:25:08;;;;;;;1999.90;999.90;;;6.00;99.90;;;;;;5053404;28;20040;-78
2023/04/01 02:27:34;;;;;;;1999.90;999.90;;;6.00;99.90;;;;;;5059103;28;20037;-78
2023/04/01 02:30:00;;;;;;;1999.90;999.90;;;5.90;99.90;;;;;;5060375;28;20039;-78
2023/04/01 02:32:28;;;;;;;1999.90;999.90;;;5.90;99.90;;;;;;5057505;28;20399;-77
2023/04/01 02:34:54;;;;;;;1999.90;999.90;;;5.90;99.90;;;;;;5059045;28;20028;-78
2023/04/01 02:37:20;;;;;;;1999.90;999.90;;;5.90;99.90;;;;;;5054286;28;20029;-78
2023/04/01 02:39:46;;;;;;;1999.90;999.90;;;5.80;99.90;;;;;;5059949;28;20057;-78
2023/04/01 02:42:14;;;;;;;1999.90;999.90;;;5.90;99.90;;;;;;5058982;28;20041;-78
2023/04/01 02:44:40;;;;;;;1999.90;999.90;;;5.90;99.90;;;;;;5059561;28;20052;-78
2023/04/01 02:47:05;;;;;;;1999.90;999.90;;;6.00;99.90;;;;;;5057152;28;20118;-77
2023/04/01 02:49:31;;;;;;;1999.90;999.90;;;5.90;99.90;;;;;;5062223;28;20044;-77
2023/04/01 02:51:57;;;;;;;1999.90;999.90;;;5.80;99.90;;;;;;5059536;28;20458;-78
2023/04/01 02:54:22;;;;;;;1999.90;999.90;;;5.70;99.90;;;;;;5054032;28;20119;-78
2023/04/01 02:56:48;;;;;;;1999.90;999.90;;;5.80;99.90;;;;;;5051231;28;20498;-78
2023/04/01 02:59:14;;;;;;;1999.90;999.90;;;5.70;99.90;;;;;;5054142;28;20029;-77
2023/04/01 03:01:40;;;;;;;1999.90;999.90;;;5.60;99.90;;;;;;5059095;28;20028;-77
2023/04/01 03:04:05;;;;;;;1999.90;999.90;;;5.60;99.90;;;;;;5058180;28;20110;-77
2023/04/01 03:06:31;;;;;;;1999.90;999.90;;;5.60;99.90;;;;;;5059954;28;20689;-77
2023/04/01 03:08:57;;;;;;;1999.90;999.90;;;5.60;99.90;;;;;;5051875;28;20032;-77
2023/04/01 03:11:22;;;;;;;1999.90;999.90;;;5.50;99.90;;;;;;5060345;28;20095;-78
2023/04/01 03:13:48;;;;;;;1999.90;999.90;;;5.50;99.90;;;;;;5056715;28;20544;-77
2023/04/01 03:16:14;;;;;;;1999.90;999.90;;;5.60;99.90;;;;;;5057044;28;20807;-78
2023/04/01 03:18:40;;;;;;;1999.90;999.90;;;5.60;99.90;;;;;;5055157;28;20085;-77
2023/04/01 03:21:21;;;;;;;1999.90;999.90;;;5.70;99.90;;;;;;5056856;28;20040;-77
2023/04/01 03:23:46;;;;;;;1999.90;999.90;;;5.60;99.90;;;;;;5032973;28;20053;-78
2023/04/01 03:26:13;;;;;;;1999.90;999.90;;;5.80;99.90;;;;;;5054044;28;20041;-78
2023/04/01 03:28:39;;;;;;;1999.90;999.90;;;5.80;99.90;;;;;;5055875;28;20037;-78
2023/04/01 03:31:05;;;;;;;1999.90;999.90;;;5.80;99.90;;;;;;5055510;28;20036;-77
2023/04/01 03:33:32;;;;;;;1999.90;999.90;;;5.80;99.90;;;;;;5053750;28;20039;-78
2023/04/01 03:35:57;;;;;;;1999.90;999.90;;;5.80;99.90;;;;;;5060036;28;20091;-78
2023/04/01 03:38:23;;;;;;;1999.90;999.90;;;5.90;99.90;;;;;;5053449;28;20041;-78
2023/04/01 03:40:49;;;;;;;1999.90;999.90;;;5.90;99.90;;;;;;5056279;28;20456;-77
2023/04/01 03:43:16;;;;;;;1999.90;999.90;;;5.80;99.90;;;;;;5056041;28;20031;-78
2023/04/01 03:45:50;;;;;;;1999.90;999.90;;;5.80;99.90;;;;;;5058617;28;20406;-78
2023/04/01 03:48:16;;;;;;;1999.90;999.90;;;5.70;99.90;;;;;;5056707;28;20056;-78
2023/04/01 03:50:42;;;;;;;1999.90;999.90;;;5.70;99.90;;;;;;5060367;28;20037;-77
2023/04/01 03:53:08;;;;;;;1999.90;999.90;;;5.80;99.90;;;;;;5058034;28;20044;-78
2023/04/01 03:55:36;;;;;;;1999.90;999.90;;;5.70;99.90;;;;;;5058127;28;20025;-76
2023/04/01 03:58:02;;;;;;;1999.90;999.90;;;5.70;99.90;;;;;;5052505;28;20075;-78
2023/04/01 04:00:29;;;;;;;1999.90;999.90;;;5.60;99.90;;;;;;5057608;28;20056;-78
2023/04/01 04:02:58;;;;;;;1999.90;999.90;;;5.60;99.90;;;;;;5052684;28;20032;-78
2023/04/01 04:05:24;;;;;;;1999.90;999.90;;;5.50;99.90;;;;;;5043413;28;20024;-78
2023/04/01 04:07:51;;;;;;;1999.90;999.90;;;5.50;99.90;;;;;;5054585;28;20064;-79
2023/04/01 04:10:16;;;;;;;1999.90;999.90;;;5.40;99.90;;;;;;5018380;28;20383;-78
2023/04/01 04:12:42;;;;;;;1999.90;999.90;;;5.40;99.90;;;;;;5054970;28;20048;-78
2023/04/01 04:15:09;;;;;;;1999.90;999.90;;;5.40;99.90;;;;;;5059038;28;20394;-78
2023/04/01 04:17:35;;;;;;;1999.90;999.90;;;5.50;99.90;;;;;;5054262;28;20017;-78
2023/04/01 04:20:01;;;;;;;1999.90;999.90;;;5.50;99.90;;;;;;5061327;28;20055;-78
2023/04/01 04:22:26;;;;;;;1999.90;999.90;;;5.50;99.90;;;;;;5051892;28;20043;-78
2023/04/01 04:24:52;;;;;;;1999.90;999.90;;;5.60;99.90;;;;;;5056179;28;20044;-79
2023/04/01 04:27:18;;;;;;;1999.90;999.90;;;5.50;99.90;;;;;;5056290;28;20032;-78
2023/04/01 04:29:44;;;;;;;1999.90;999.90;;;5.50;99.90;;;;;;5060179;28;20028;-78
2023/04/01 04:32:09;;;;;;;1999.90;999.90;;;5.50;99.90;;;;;;5054103;28;20039;-79
2023/04/01 04:34:35;;;;;;;1999.90;999.90;;;5.50;99.90;;;;;;5040777;28;20530;-78
2023/04/01 04:37:01;;;;;;;1999.90;999.90;;;5.60;99.90;;;;;;5056128;28;20047;-78
2023/04/01 04:39:26;;;;;;;1999.90;999.90;;;5.70;99.90;;;;;;5062817;28;20502;-77
2023/04/01 04:41:52;;;;;;;1999.90;999.90;;;5.70;99.90;;;;;;5039480;28;20083;-77
2023/04/01 04:44:18;;;;;;;1999.90;999.90;;;5.70;99.90;;;;;;5054648;28;20094;-81
2023/04/01 04:46:43;;;;;;;1999.90;999.90;;;5.70;99.90;;;;;;5047403;28;20502;-77
2023/04/01 04:49:09;;;;;;;1999.90;999.90;;;5.70;99.90;;;;;;5062184;28;20067;-78
2023/04/01 04:51:35;;;;;;;1999.90;999.90;;;5.70;99.90;;;;;;5052527;28;20067;-77
2023/04/01 04:54:02;;;;;;;1999.90;999.90;;;5.80;99.90;;;;;;5059181;28;20051;-77
2023/04/01 04:56:28;;;;;;;1999.90;999.90;;;5.70;99.90;;;;;;5052219;28;20491;-77
2023/04/01 04:58:54;;;;;;;1999.90;999.90;;;5.70;99.90;;;;;;5058692;28;20052;-78
2023/04/01 05:01:20;;;;;;;1999.90;999.90;;;5.70;99.90;;;;;;5057412;28;20021;-78
2023/04/01 05:03:46;;;;;;;1999.90;999.90;;;5.80;99.90;;;;;;5058066;28;20039;-77
2023/04/01 05:06:14;;;;;;;1999.90;999.90;;;5.90;99.90;;;;;;5053655;28;20074;-78
2023/04/01 05:08:40;;;;;;;1999.90;999.90;;;5.90;99.90;;;;;;5057927;28;20431;-78
2023/04/01 05:11:10;;;;;;;1999.90;999.90;;;5.90;99.90;;;;;;5047958;28;20538;-79
2023/04/01 05:13:37;;;;;;;1999.90;999.90;;;5.90;99.90;;;;;;5052393;28;20033;-78
2023/04/01 05:16:03;;;;;;;1999.90;999.90;;;5.90;99.90;;;;;;5047776;28;20041;-78
2023/04/01 05:18:29;;;;;;;1999.90;999.90;;;5.90;99.90;;;;;;5046259;28;20037;-78
2023/04/01 05:20:57;;;;;;;1999.90;999.90;;;6.00;99.90;;;;;;5049763;28;20020;-78
2023/04/01 05:23:23;;;;;;;1999.90;999.90;;;6.00;99.90;;;;;;5018856;28;20047;-80
2023/04/01 05:25:50;;;;;;;1999.90;999.90;;;6.00;99.90;;;;;;5055476;28;20495;-77
2023/04/01 05:28:17;;;;;;;1999.90;999.90;;;6.10;99.90;;;;;;5054310;28;20025;-77
2023/04/01 05:30:43;;;;;;;1999.90;999.90;;;6.10;99.90;;;;;;5052034;28;20028;-78
2023/04/01 05:33:11;;;;;;;1999.90;999.90;;;6.10;99.90;;;;;;5045745;28;20057;-78
2023/04/01 05:35:36;;;;;;;1999.90;999.90;;;6.10;99.90;;;;;;5051204;28;20495;-78
2023/04/01 05:38:03;;;;;;;1999.90;999.90;;;6.10;99.90;;;;;;5052682;28;20140;-78
2023/04/01 05:40:30;;;;;;;1999.90;999.90;;;6.10;99.90;;;;;;5046985;28;20037;-79
2023/04/01 05:42:56;;;;;;;1999.90;999.90;;;6.10;99.90;;;;;;5046747;28;20028;-79
2023/04/01 05:45:22;;;;;;;1999.90;999.90;;;6.10;99.90;;;;;;5049013;28;20040;-79
2023/04/01 05:47:48;;;;;;;1999.90;999.90;;;6.20;99.90;;;;;;5049128;28;20488;-78
2023/04/01 05:50:13;;;;;;;1999.90;999.90;;;6.10;99.90;;;;;;5046671;28;20635;-79
2023/04/01 05:52:39;;;;;;;1999.90;999.90;;;6.10;99.90;;;;;;5059985;28;20029;-80
2023/04/01 05:55:05;;;;;;;1999.90;999.90;;;6.10;99.90;;;;;;5060097;28;20064;-79
2023/04/01 05:57:31;;;;;;;1999.90;999.90;;;6.10;99.90;;;;;;5055331;28;20029;-78
2023/04/01 05:59:57;;;;;;;1999.90;999.90;;;6.00;99.90;;;;;;5050430;28;20120;-79
2023/04/01 06:02:23;;;;;;;1999.90;999.90;;;6.00;99.90;;;;;;5059605;28;20024;-79
2023/04/01 06:04:54;;;;;;;1999.90;999.90;;;6.00;99.90;;;;;;5062975;28;20028;-80
2023/04/01 06:07:20;;;;;;;1999.90;999.90;;;6.00;99.90;;;;;;5059234;28;20020;-78
2023/04/01 06:09:46;;;;;;;1999.90;999.90;;;6.00;99.90;;;;;;5057607;28;20086;-81
2023/04/01 06:12:37;;;;;;;1999.90;999.90;;;6.10;99.90;;;;;;5061799;28;20037;-79
2023/04/01 06:15:25;;;;;;;1999.90;999.90;;;6.10;99.90;;;;;;5061378;28;20029;-79
2023/04/01 06:18:29;;;;;;;1999.90;999.90;;;6.30;99.90;;;;;;5061856;28;20155;-78
2023/04/01 06:21:12;;;;;;;1999.90;999.90;;;6.40;99.90;;;;;;5056892;28;20333;-79
2023/04/01 06:23:49;;;;;;;1999.90;999.90;;;6.50;99.90;;;;;;5057818;28;20029;-78
2023/04/01 06:26:30;;;;;;;1999.90;999.90;;;6.50;99.90;;;;;;5049411;28;20059;-81
2023/04/01 06:29:11;;;;;;;1999.90;999.90;;;6.50;99.90;;;;;;5054052;28;20029;-79
2023/04/01 06:32:09;;;;;;;1999.90;999.90;;;6.50;99.90;;;;;;5052283;28;20036;-77
2023/04/01 06:35:05;;;;;;;1999.90;999.90;;;6.60;99.90;;;;;;5051430;28;20025;-76
2023/04/01 06:37:52;;;;;;;1999.90;999.90;;;6.70;99.90;;;;;;5053081;28;20036;-82
2023/04/01 06:41:01;;;;;;;1999.90;999.90;;;6.70;99.90;;;;;;5054634;28;20045;-78
2023/04/01 06:43:49;;;;;;;1999.90;999.90;;;6.60;99.90;;;;;;5053666;28;20498;-82
2023/04/01 06:46:34;;;;;;;1999.90;999.90;;;6.70;99.90;;;;;;5051107;28;20043;-81
2023/04/01 06:49:16;;;;;;;1999.90;999.90;;;6.70;99.90;;;;;;5060204;28;20026;-79
2023/04/01 06:51:41;;;;;;;1999.90;999.90;;;6.70;99.90;;;;;;5055570;28;20052;-79
2023/04/01 06:54:25;;;;;;;1999.90;999.90;;;6.70;99.90;;;;;;5064487;28;20382;-78
2023/04/01 06:56:59;;;;;;;1999.90;999.90;;;6.90;99.90;;;;;;5052725;28;20438;-78
2023/04/01 06:59:28;;;;;;;1999.90;999.90;;;6.90;99.90;;;;;;5051457;28;20075;-79
2023/04/01 07:02:00;;;;;;;1999.90;999.90;;;6.90;99.90;;;;;;5052403;28;20036;-77
2023/04/01 07:04:31;;;;;;;1999.90;999.90;;;6.90;99.90;;;;;;5051267;28;20238;-75
2023/04/01 07:06:56;;;;;;;1999.90;999.90;;;6.90;99.90;;;;;;5056282;28;20111;-76
2023/04/01 07:09:31;;;;;;;1999.90;999.90;;;7.10;99.90;;;;;;5056010;28;20471;-78
2023/04/01 07:12:13;;;;;;;1999.90;999.90;;;7.20;99.90;;;;;;5047166;28;20044;-80
2023/04/01 07:14:42;;;;;;;1999.90;999.90;;;7.20;99.90;;;;;;5059243;28;20025;-77
2023/04/01 07:17:14;;;;;;;1999.90;999.90;;;7.20;99.90;;;;;;5053442;28;20097;-76
2023/04/01 07:19:54;;;;;;;1999.90;999.90;;;7.30;99.90;;;;;;5058801;28;20025;-78
2023/04/01 07:22:44;;;;;;;1999.90;999.90;;;7.40;99.90;;;;;;5061030;28;20031;-77
2023/04/01 07:25:22;;;;;;;1999.90;999.90;;;7.40;99.90;;;;;;5044444;28;20428;-76
2023/04/01 07:27:48;;;;;;;1999.90;999.90;;;7.50;99.90;;;;;;5064585;28;20364;-81
2023/04/01 07:30:20;;;;;;;1999.90;999.90;;;7.60;99.90;;;;;;5052672;28;20494;-79
2023/04/01 07:32:55;;;;;;;1999.90;999.90;;;7.80;99.90;;;;;;5055451;28;20032;-77
2023/04/01 07:35:47;;;;;;;1999.90;999.90;;;7.80;99.90;;;;;;5055463;28;20029;-79
2023/04/01 07:38:46;;;;;;;1999.90;999.90;;;8.00;99.90;;;;;;5048315;28;20503;-82
2023/04/01 07:41:23;;;;;;;1999.90;999.90;;;7.80;99.90;;;;;;5061082;28;20487;-77
2023/04/01 07:44:00;;;;;;;1999.90;999.90;;;7.90;99.90;;;;;;5055308;28;20032;-77
2023/04/01 07:47:06;;;;;;;1999.90;999.90;;;7.80;99.90;;;;;;5053925;28;20029;-89
2023/04/01 07:49:57;;;;;;;1999.90;999.90;;;7.90;99.90;;;;;;5061022;28;20415;-87
2023/04/01 07:52:41;;;;;;;1999.90;999.90;;;7.80;99.90;;;;;;5033191;28;20068;-86
2023/04/01 07:55:16;;;;;;;1999.90;999.90;;;7.70;99.90;;;;;;5039856;28;20030;-81
2023/04/01 07:57:51;;;;;;;1999.90;999.90;;;7.60;99.90;;;;;;5051106;28;20118;-78
2023/04/01 08:00:43;;;;;;;1999.90;999.90;;;7.60;99.90;;;;;;5053910;28;20025;-76
2023/04/01 08:03:58;;;;;;;1999.90;999.90;;;7.60;99.90;;;;;;5049108;28;20029;-85
2023/04/01 08:06:40;;;;;;;1999.90;999.90;;;7.70;99.90;;;;;;5065795;28;20114;-84
2023/04/01 08:09:40;;;;;;;1999.90;999.90;;;7.60;99.90;;;;;;5067320;28;20490;-81
2023/04/01 08:12:44;;;;;;;1999.90;999.90;;;7.70;99.90;;;;;;5044121;28;20052;-83
2023/04/01 08:15:32;;;;;;;1999.90;999.90;;;7.80;99.90;;;;;;5052314;28;20037;-80
2023/04/01 08:18:06;;;;;;;1999.90;999.90;;;7.50;99.90;;;;;;5048453;28;20021;-80
2023/04/01 08:20:47;;;;;;;1999.90;999.90;;;7.60;99.90;;;;;;5051587;28;20100;-82
2023/04/01 08:23:17;;;;;;;;;;;7.70;99.90;;;;;;5057706;28;20596;-81
2023/04/01 08:25:56;;;;;;;1999.90;999.90;;;7.70;99.90;;;;;;5050159;28;19924;-81
2023/04/01 08:28:36;;;;;;;1999.90;999.90;;;7.60;99.90;;;;;;5058920;28;20028;-80
2023/04/01 08:31:07;;;;;;;1999.90;999.90;;;7.60;99.90;;;;;;5050243;28;20036;-84
2023/04/01 08:33:33;;;;;;;1999.90;999.90;;;7.60;99.90;;;;;;5056358;28;20785;-82
2023/04/01 08:36:20;;;;;;;1999.90;999.90;;;7.90;99.90;;;;;;5052688;28;20037;-78
2023/04/01 08:38:58;;;;;;;1999.90;999.90;;;7.90;99.90;;;;;;5048917;28;20441;-79
2023/04/01 08:42:01;;;;;;;1999.90;999.90;;;7.90;99.90;;;;;;5043733;28;20714;-81
2023/04/01 08:44:45;;;;;;;1999.90;999.90;;;8.00;99.90;;;;;;5045742;28;20029;-82
2023/04/01 08:47:20;;;;;;;1999.90;999.90;;;8.00;99.90;;;;;;5050574;28;20550;-81
2023/04/01 08:50:24;;;;;;;1999.90;999.90;;;7.80;99.90;;;;;;5048754;28;20513;-79
2023/04/01 08:53:17;;;;;;;1999.90;999.90;;;7.80;99.90;;;;;;5050439;28;20024;-80
2023/04/01 08:56:20;;;;;;;1999.90;999.90;;;7.90;99.90;;;;;;5041471;28;20038;-80
2023/04/01 08:59:03;;;;;;;1999.90;999.90;;;7.80;99.90;;;;;;5076763;28;20032;-89
2023/04/01 09:01:38;;;;;;;1999.90;999.90;;;7.70;99.90;;;;;;5042674;28;20040;-78
2023/04/01 09:04:22;;;;;;;1999.90;999.90;;;7.70;99.90;;;;;;5048500;28;20025;-78
2023/04/01 09:06:56;;;;;;;1999.90;999.90;;;7.40;99.90;;;;;;5051407;28;20367;-84
2023/04/01 09:09:57;;;;;;;1999.90;999.90;;;7.60;99.90;;;;;;5048569;28;20025;-82
2023/04/01 09:12:34;;;;;;;1999.90;999.90;;;7.50;99.90;;;;;;5050158;28;20032;-82
2023/04/01 09:15:26;;;;;;;1999.90;999.90;;;7.40;99.90;;;;;;5051246;28;20033;-87
2023/04/01 09:18:11;;;;;;;1999.90;999.90;;;7.20;99.90;;;;;;5052445;28;20502;-82
2023/04/01 09:20:54;;;;;;;1999.90;999.90;;;7.20;99.90;;;;;;5051192;28;20021;-85
2023/04/01 09:23:57;;;;;;;1999.90;999.90;;;7.40;99.90;;;;;;5050402;28;20025;-84
2023/04/01 09:26:38;;;;;;;1999.90;999.90;;;7.20;99.90;;;;;;5053899;28;20083;-84
2023/04/01 09:29:22;;;;;;;1999.90;999.90;;;7.60;99.90;;;;;;5054659;28;20025;-83
2023/04/01 09:32:07;;;;;;;1999.90;999.90;;;7.40;99.90;;;;;;5065725;28;20637;-83
2023/04/01 09:34:54;;;;;;;1999.90;999.90;;;7.50;99.90;;;;;;5055266;28;20037;-83
2023/04/01 09:37:39;;;;;;;1999.90;999.90;;;7.30;99.90;;;;;;5055228;28;20078;-89
2023/04/01 09:40:18;;;;;;;1999.90;999.90;;;7.00;99.90;;;;;;5061087;28;20078;-82
2023/04/01 09:43:12;;;;;;;1999.90;999.90;;;7.20;99.90;;;;;;5055590;28;20041;-87
2023/04/01 09:45:58;;;;;;;1999.90;999.90;;;7.10;99.90;;;;;;5055903;28;20028;-87
2023/04/01 09:48:33;;;;;;;1999.90;999.90;;;7.00;99.90;;;;;;5057751;28;20140;-85
2023/04/01 09:51:34;;;;;;;1999.90;999.90;;;7.00;99.90;;;;;;5056057;28;20536;-83
2023/04/01 09:54:12;;;;;;;1999.90;999.90;;;6.90;99.90;;;;;;5025868;28;20776;-84
2023/04/01 09:56:52;;;;;;;1999.90;999.90;;;6.70;99.90;;;;;;5061373;28;20079;-88
2023/04/01 09:59:47;;;;;;;1999.90;999.90;;;6.90;99.90;;;;;;5061222;28;20033;-81
2023/04/01 10:02:46;;;;;;;1999.90;999.90;;;6.80;99.90;;;;;;5062189;28;20025;-83
2023/04/01 10:05:49;;;;;;;1999.90;999.90;;;6.80;99.90;;;;;;5045503;28;20052;-86
2023/04/01 10:08:52;;;;;;;1999.90;999.90;;;6.70;99.90;;;;;;5054049;28;20033;-83
2023/04/01 10:11:55;;;;;;;1999.90;999.90;;;6.80;99.90;;;;;;5059255;28;20429;-82
2023/04/01 10:15:05;;;;;;;1999.90;999.90;;;6.80;99.90;;;;;;5049817;28;20547;-88
2023/04/01 10:17:45;;;;;;;1999.90;999.90;;;6.80;99.90;;;;;;5044571;28;20037;-89
2023/04/01 10:20:20;;;;;;;1999.90;999.90;;;6.90;99.90;;;;;;5042723;28;20135;-81
2023/04/01 10:23:19;;;;;;;1999.90;999.90;;;6.70;99.90;;;;;;5047998;28;20040;-87
2023/04/01 10:26:12;;;;;;;1999.90;999.90;;;6.70;99.90;;;;;;5054009;28;20041;-84
2023/04/01 10:29:12;;;;;;;1999.90;999.90;;;6.90;99.90;;;;;;5051022;28;20025;-82
2023/04/01 10:32:29;;;;;;;1999.90;999.90;;;6.80;99.90;;;;;;5051669;28;20155;-81
2023/04/01 10:35:09;;;;;;;1999.90;999.90;;;7.00;99.90;;;;;;5052210;28;20025;-81
2023/04/01 10:37:53;;;;;;;1999.90;999.90;;;6.90;99.90;;;;;;5044560;28;20067;-81
2023/04/01 10:40:28;;;;;;;1999.90;999.90;;;7.20;99.90;;;;;;5052406;28;20044;-79
2023/04/01 10:43:12;;;;;;;1999.90;999.90;;;7.10;99.90;;;;;;5050729;28;20074;-79
2023/04/01 10:46:21;;;;;;;1999.90;999.90;;;7.30;99.90;;;;;;5055667;28;20116;-80
2023/04/01 10:49:06;;;;;;;1999.90;999.90;;;7.50;99.90;;;;;;5059641;28;20528;-84
2023/04/01 10:51:59;;;;;;;1999.90;999.90;;;7.70;99.90;;;;;;5066713;28;20056;-77
2023/04/01 10:55:16;;;;;;;1999.90;999.90;;;7.70;99.90;;;;;;5047493;28;20532;-81
2023/04/01 10:58:14;;;;;;;1999.90;999.90;;;7.70;97.70;;;;;;5016629;28;20045;-80
2023/04/01 11:01:07;;;;;;;1999.90;999.90;;;7.60;96.80;;;;;;5053770;28;20032;-81
2023/04/01 11:04:01;;;;;;;1999.90;999.90;;;7.80;97.30;;;;;;5050348;28;20079;-78
2023/04/01 11:06:45;;;;;;;1999.90;999.90;;;7.40;95.70;;;;;;5049816;28;20083;-80
2023/04/01 11:09:35;;;;;;;1999.90;999.90;;;7.60;98.50;;;;;;5043378;28;20129;-81
2023/04/01 11:12:32;;;;;;;1999.90;999.90;;;7.40;98.50;;;;;;5046997;28;20025;-80
2023/04/01 11:15:22;;;;;;;1999.90;999.90;;;8.20;99.90;;;;;;5047099;28;20497;-81
2023/04/01 11:18:14;;;;;;;1999.90;999.90;;;8.10;99.90;;;;;;5045718;28;20037;-79
2023/04/01 11:20:58;;;;;;;1999.90;999.90;;;7.80;99.90;;;;;;5046303;28;20087;-79
2023/04/01 11:23:42;;;;;;;1999.90;999.90;;;7.60;99.90;;;;;;5042592;28;20021;-78
2023/04/01 11:26:26;;;;;;;1999.90;999.90;;;7.50;99.90;;;;;;5043343;28;20207;-80
2023/04/01 11:29:01;;;;;;;1999.90;999.90;;;7.30;99.90;;;;;;5050680;28;20527;-77
2023/04/01 11:31:46;;;;;;;1999.90;999.90;;;7.20;99.90;;;;;;5044879;28;20079;-83
2023/04/01 11:34:32;;;;;;;1999.90;999.90;;;7.10;99.90;;;;;;5051856;28;20060;-79
2023/04/01 11:37:26;;;;;;;1999.90;999.90;;;7.00;99.90;;;;;;5049859;28;20032;-78
2023/04/01 11:40:11;;;;;;;1999.90;999.90;;;6.90;99.90;;;;;;5055241;28;20040;-78
2023/04/01 11:42:38;;;;;;;1999.90;999.90;;;7.00;99.90;;;;;;5041949;28;20029;-77
2023/04/01 11:45:20;;;;;;;1999.90;999.90;;;7.00;99.90;;;;;;5053929;28;20030;-82
2023/04/01 11:47:59;;;;;;;1999.90;999.90;;;7.10;99.90;;;;;;5047275;28;20029;-78
2023/04/01 11:50:55;;;;;;;1999.90;999.90;;;7.10;99.90;;;;;;5052483;28;20053;-79
2023/04/01 11:53:29;;;;;;;1999.90;999.90;;;7.10;99.90;;;;;;5050933;28;20036;-78
2023/04/01 11:56:20;;;;;;;1999.90;999.90;;;7.20;99.90;;;;;;5052272;28;20032;-79
2023/04/01 11:59:24;;;;;;;1999.90;999.90;;;7.30;99.90;;;;;;5046209;28;20041;-81
2023/04/01 12:02:08;;;;;;;1999.90;999.90;;;7.40;99.90;;;;;;5054166;28;20025;-78
2023/04/01 12:04:56;;;;;;;1999.90;999.90;;;7.50;99.90;;;;;;5063618;28;20119;-80
2023/04/01 12:07:37;;;;;;;1999.90;999.90;;;7.50;99.90;;;;;;5057603;28;20086;-78
2023/04/01 12:10:03;;;;;;;1999.90;999.90;;;7.60;99.90;;;;;;5056277;28;20029;-83
2023/04/01 12:12:57;;;;;;;1999.90;999.90;;;7.60;99.90;;;;;;5052687;28;20108;-81
2023/04/01 12:15:25;;;;;;;1999.90;999.90;;;7.60;99.90;;;;;;5054713;28;20144;-82
2023/04/01 12:18:09;;;;;;;1999.90;999.90;;;7.60;99.90;;;;;;5053273;28;20020;-81
2023/04/01 12:20:45;;;;;;;1999.90;999.90;;;7.80;99.90;;;;;;5057707;28;20056;-83
2023/04/01 12:23:11;;;;;;;1999.90;999.90;;;7.70;99.90;;;;;;5057983;28;20025;-82
2023/04/01 12:26:19;;;;;;;1999.90;999.90;;;7.80;99.90;;;;;;5052581;28;20521;-87
2023/04/01 12:29:11;;;;;;;1999.90;999.90;;;7.80;99.90;;;;;;5052778;28;20042;-82
2023/04/01 12:32:04;;;;;;;1999.90;999.90;;;7.80;99.90;;;;;;5046565;28;20029;-83
2023/04/01 12:34:39;;;;;;;1999.90;999.90;;;7.80;99.90;;;;;;5051059;28;20521;-84
2023/04/01 12:37:14;;;;;;;1999.90;999.90;;;7.60;99.90;;;;;;5047033;28;20083;-83
2023/04/01 12:40:01;;;;;;;1999.90;999.90;;;7.80;99.90;;;;;;5051645;28;20038;-83
2023/04/01 12:42:54;;;;;;;1999.90;999.90;;;7.60;99.90;;;;;;5049891;28;20033;-84
2023/04/01 12:45:23;;;;;;;1999.90;999.90;;;7.60;99.90;;;;;;5044875;28;20060;-82
2023/04/01 12:48:17;;;;;;;1999.90;999.90;;;7.70;99.90;;;;;;5050539;28;20104;-84
2023/04/01 12:50:52;;;;;;;1999.90;999.90;;;7.80;99.90;;;;;;5050010;28;20039;-83
2023/04/01 12:53:59;;;;;;;1999.90;999.90;;;8.00;99.90;;;;;;5047463;28;20053;-81
2023/04/01 12:56:50;;;;;;;1999.90;999.90;;;8.00;99.90;;;;;;5050689;28;20024;-79